Nashua River @ East Pepperell, Ma

Nashua River at East Pepperell
 Total Drainage Area: 316 sq. miles 
 Drainage Area Controlled by Corps Dams: 0 sq. miles (0%) 
 Warning Flow/Stage: 3,000 cfs / 6.5 feet 
 Flood Flow/Stage: 4,300 cfs / 8.0 feet 
Date Time
(Eastern)
Stage
(ft)
Flow
(cfs)
CSM
(cfs / sq. mi.)
Feb-26 01:30 am 2.33 576 1.8
Feb-26 12:30 am 2.34 581 1.8
Feb-25 11:30 pm 2.32 572 1.8
Feb-25 10:30 pm 2.32 572 1.8
Feb-25 09:30 pm 2.32 572 1.8
Feb-25 08:30 pm 2.34 581 1.8
Feb-25 07:30 pm 2.34 581 1.8
Feb-25 06:30 pm 2.35 585 1.9
Feb-25 05:30 pm 2.36 589 1.9
Feb-25 04:30 pm 2.36 589 1.9
Feb-25 03:30 pm 2.36 589 1.9
Feb-25 02:30 pm 2.37 593 1.9
Feb-25 01:30 pm 2.37 593 1.9
Feb-25 12:30 pm 2.37 593 1.9
Feb-25 11:30 am 2.37 593 1.9
Feb-25 10:30 am 2.37 593 1.9
Feb-25 09:30 am 2.39 602 1.9
Feb-25 08:30 am 2.39 602 1.9
Feb-25 07:30 am 2.39 602 1.9
Feb-25 06:30 am 2.38 598 1.9
Feb-25 05:30 am 2.40 606 1.9
Feb-25 04:30 am 2.39 602 1.9
Feb-25 03:30 am 2.40 606 1.9
Feb-25 02:30 am 2.40 606 1.9
Feb-25 01:30 am 2.41 611 1.9
Report Generated February 26, 2024 01:54 am